createdAt,value
2019-03-26T00:02:22.516Z,5.20
2019-03-26T00:04:50.266Z,5.20
2019-03-26T00:07:18.001Z,5.20
2019-03-26T00:09:45.760Z,5.30
2019-03-26T00:12:13.515Z,5.40
2019-03-26T00:14:41.261Z,5.50
2019-03-26T00:17:09.052Z,5.60
2019-03-26T00:19:36.848Z,5.60
2019-03-26T00:22:04.569Z,5.70
2019-03-26T00:24:32.316Z,5.80
2019-03-26T00:27:00.053Z,6.00
2019-03-26T00:29:27.812Z,6.10
2019-03-26T00:31:55.564Z,6.00
2019-03-26T00:34:23.332Z,6.00
2019-03-26T00:36:51.060Z,6.00
2019-03-26T00:39:18.840Z,5.80
2019-03-26T00:41:46.580Z,5.60
2019-03-26T00:44:14.316Z,5.60
2019-03-26T00:46:42.091Z,5.30
2019-03-26T00:49:09.728Z,5.30
2019-03-26T00:51:37.464Z,5.50
2019-03-26T00:54:05.204Z,5.40
2019-03-26T00:56:32.966Z,5.50
2019-03-26T00:59:00.683Z,5.40
2019-03-26T01:01:28.447Z,5.30
2019-03-26T01:03:56.416Z,5.30
2019-03-26T01:06:24.140Z,5.10
2019-03-26T01:08:52.118Z,5.00
2019-03-26T01:11:19.868Z,4.90
2019-03-26T01:13:47.613Z,4.90
2019-03-26T01:16:15.389Z,5.00
2019-03-26T01:18:43.160Z,5.20
2019-03-26T01:21:10.892Z,5.40
2019-03-26T01:23:38.636Z,5.30
2019-03-26T01:26:06.402Z,5.40
2019-03-26T01:28:34.156Z,5.40
2019-03-26T01:31:02.048Z,5.30
2019-03-26T01:33:29.925Z,5.30
2019-03-26T01:35:57.660Z,5.40
2019-03-26T01:38:25.408Z,5.50
2019-03-26T01:40:53.148Z,5.40
2019-03-26T01:43:20.885Z,5.50
2019-03-26T01:45:48.720Z,5.60
2019-03-26T01:48:16.484Z,5.50
2019-03-26T01:50:44.223Z,5.50
2019-03-26T01:53:11.992Z,5.40
2019-03-26T01:55:39.817Z,5.50
2019-03-26T01:58:07.552Z,5.40
2019-03-26T02:00:35.305Z,5.50
2019-03-26T02:03:03.045Z,5.30
2019-03-26T02:05:30.832Z,5.30
2019-03-26T02:07:58.582Z,5.10
2019-03-26T02:10:26.348Z,5.00
2019-03-26T02:12:54.072Z,4.80
2019-03-26T02:15:27.896Z,4.60
2019-03-26T02:17:55.616Z,4.50
2019-03-26T02:20:23.426Z,4.40
2019-03-26T02:22:51.228Z,4.30
2019-03-26T02:25:19.204Z,4.40
2019-03-26T02:27:46.973Z,4.30
2019-03-26T02:30:14.765Z,4.40
2019-03-26T02:32:42.517Z,4.40
2019-03-26T02:35:18.377Z,4.50
2019-03-26T02:37:40.404Z,4.50
2019-03-26T02:40:08.271Z,4.40
2019-03-26T02:42:36.105Z,4.50
2019-03-26T02:45:04.185Z,4.70
2019-03-26T02:47:31.912Z,4.60
2019-03-26T02:49:59.685Z,4.70
2019-03-26T02:52:27.450Z,4.60
2019-03-26T02:54:55.213Z,4.70
2019-03-26T02:57:22.976Z,4.70
2019-03-26T02:59:50.741Z,4.80
2019-03-26T03:02:18.494Z,4.80
2019-03-26T03:04:46.247Z,4.70
2019-03-26T03:07:14.021Z,4.70
2019-03-26T03:09:41.800Z,4.80
2019-03-26T03:12:09.552Z,4.80
2019-03-26T03:14:37.341Z,4.70
2019-03-26T03:17:05.076Z,4.70
2019-03-26T03:19:32.842Z,4.70
2019-03-26T03:22:00.633Z,4.60
2019-03-26T03:24:28.497Z,4.70
2019-03-26T03:26:56.362Z,4.80
2019-03-26T03:29:24.112Z,4.80
2019-03-26T03:31:51.897Z,4.80
2019-03-26T03:34:19.809Z,5.00
2019-03-26T03:36:47.541Z,5.00
2019-03-26T03:39:15.407Z,5.00
2019-03-26T03:41:43.170Z,4.90
2019-03-26T03:44:10.934Z,4.90
2019-03-26T03:46:39.969Z,5.10
2019-03-26T03:49:08.011Z,5.10
2019-03-26T03:51:37.772Z,5.00
2019-03-26T03:54:07.004Z,5.10
2019-03-26T03:56:36.241Z,5.10
2019-03-26T03:59:05.897Z,5.00
2019-03-26T04:01:33.645Z,4.90
2019-03-26T04:04:01.377Z,4.90
2019-03-26T04:06:29.146Z,4.90
2019-03-26T04:08:56.897Z,4.80
2019-03-26T04:11:24.731Z,4.80
2019-03-26T04:13:52.473Z,4.80
2019-03-26T04:16:20.198Z,5.00
2019-03-26T04:18:47.984Z,5.10
2019-03-26T04:21:15.735Z,5.00
2019-03-26T04:23:43.486Z,4.90
2019-03-26T04:26:11.242Z,4.90
2019-03-26T04:28:39.092Z,4.80
2019-03-26T04:31:06.860Z,4.70
2019-03-26T04:33:34.700Z,4.80
2019-03-26T04:36:02.455Z,5.00
2019-03-26T04:38:30.206Z,5.00
2019-03-26T04:40:57.963Z,5.00
2019-03-26T04:43:25.730Z,4.70
2019-03-26T04:45:53.548Z,4.70
2019-03-26T04:48:21.309Z,4.90
2019-03-26T04:50:49.073Z,4.90
2019-03-26T04:53:16.856Z,5.00
2019-03-26T04:55:44.680Z,4.90
2019-03-26T04:58:24.157Z,4.70
2019-03-26T05:00:51.889Z,4.90
2019-03-26T05:03:19.638Z,5.10
2019-03-26T05:05:47.376Z,5.20
2019-03-26T05:08:15.104Z,5.40
2019-03-26T05:10:42.868Z,5.30
2019-03-26T05:13:10.617Z,5.20
2019-03-26T05:15:38.361Z,5.20
2019-03-26T05:18:06.248Z,5.10
2019-03-26T05:20:34.008Z,5.20
2019-03-26T05:23:01.752Z,5.20
2019-03-26T05:25:29.643Z,5.20
2019-03-26T05:27:57.388Z,5.00
2019-03-26T05:30:25.168Z,4.90
2019-03-26T05:32:53.013Z,4.90
2019-03-26T05:35:20.787Z,5.00
2019-03-26T05:37:48.508Z,5.00
2019-03-26T05:40:16.265Z,5.10
2019-03-26T05:42:43.972Z,5.00
2019-03-26T05:45:11.912Z,4.90
2019-03-26T05:47:39.676Z,4.90
2019-03-26T05:50:08.171Z,4.90
2019-03-26T05:52:36.372Z,5.00
2019-03-26T05:55:04.960Z,5.00
2019-03-26T05:57:32.691Z,5.10
2019-03-26T06:00:00.575Z,5.10
2019-03-26T06:02:28.338Z,5.00
2019-03-26T06:04:56.120Z,5.00
2019-03-26T06:07:23.851Z,5.00
2019-03-26T06:09:51.628Z,5.20
2019-03-26T06:12:19.380Z,5.50
2019-03-26T06:14:47.129Z,5.80
2019-03-26T06:17:14.949Z,6.20
2019-03-26T06:19:42.724Z,6.60
2019-03-26T06:22:10.448Z,6.70
2019-03-26T06:24:38.235Z,6.60
2019-03-26T06:27:06.196Z,6.40
2019-03-26T06:29:33.966Z,6.30
2019-03-26T06:32:01.734Z,6.00
2019-03-26T06:34:29.486Z,5.90
2019-03-26T06:36:57.204Z,5.60
2019-03-26T06:39:25.072Z,5.30
2019-03-26T06:41:52.812Z,5.10
2019-03-26T06:44:20.585Z,5.30
2019-03-26T06:46:48.349Z,5.30
2019-03-26T06:49:16.116Z,5.40
2019-03-26T06:51:43.855Z,5.40
2019-03-26T06:54:11.592Z,5.50
2019-03-26T06:56:39.477Z,5.70
2019-03-26T06:59:07.224Z,5.60
2019-03-26T07:01:34.950Z,5.50
2019-03-26T07:04:02.884Z,5.70
2019-03-26T07:06:30.620Z,6.00
2019-03-26T07:08:58.372Z,6.30
2019-03-26T07:11:26.104Z,6.30
2019-03-26T07:13:53.866Z,6.30
2019-03-26T07:16:21.616Z,6.40
2019-03-26T07:18:49.455Z,6.40
2019-03-26T07:21:18.204Z,6.50
2019-03-26T07:23:45.997Z,6.40
2019-03-26T07:26:13.766Z,6.40
2019-03-26T07:28:41.522Z,6.50
2019-03-26T07:31:09.267Z,6.80
2019-03-26T07:33:37.044Z,6.90
2019-03-26T07:36:04.764Z,7.00
2019-03-26T07:38:32.512Z,7.20
2019-03-26T07:41:00.295Z,7.30
2019-03-26T07:43:28.057Z,7.50
2019-03-26T07:45:55.817Z,7.60
2019-03-26T07:48:23.562Z,7.20
2019-03-26T07:50:51.300Z,7.10
2019-03-26T07:53:19.093Z,6.80
2019-03-26T07:55:46.890Z,6.20
2019-03-26T07:58:14.657Z,5.80
2019-03-26T08:00:42.428Z,6.20
2019-03-26T08:03:10.276Z,6.10
2019-03-26T08:05:38.032Z,6.50
2019-03-26T08:08:05.801Z,6.70
2019-03-26T08:10:33.650Z,6.60
2019-03-26T08:13:01.614Z,6.50
2019-03-26T08:15:29.552Z,6.70
2019-03-26T08:17:57.373Z,6.90
2019-03-26T08:20:25.104Z,6.90
2019-03-26T08:22:52.947Z,6.90
2019-03-26T08:25:20.682Z,7.10
2019-03-26T08:27:48.435Z,7.50
2019-03-26T08:30:16.296Z,7.60
2019-03-26T08:32:44.042Z,8.00
2019-03-26T08:35:11.984Z,8.50
2019-03-26T08:37:39.738Z,8.60
2019-03-26T08:40:07.624Z,8.50
2019-03-26T08:42:35.364Z,8.40
2019-03-26T08:45:03.640Z,7.80
2019-03-26T08:47:31.392Z,7.50
2019-03-26T08:49:59.125Z,7.30
2019-03-26T08:52:26.876Z,7.30
2019-03-26T08:54:54.624Z,7.50
2019-03-26T08:57:22.470Z,7.40
2019-03-26T08:59:50.265Z,7.50
2019-03-26T09:02:18.037Z,7.40
2019-03-26T09:04:45.896Z,7.20
2019-03-26T09:07:13.629Z,7.00
2019-03-26T09:09:41.396Z,7.00
2019-03-26T09:12:09.124Z,7.10
2019-03-26T09:14:36.876Z,7.50
2019-03-26T09:17:04.644Z,8.10
2019-03-26T09:19:32.500Z,9.50
2019-03-26T09:22:00.268Z,10.30
2019-03-26T09:24:28.033Z,9.60
2019-03-26T09:26:55.774Z,8.90
2019-03-26T09:29:23.520Z,8.70
2019-03-26T09:31:51.288Z,8.30
2019-03-26T09:34:19.033Z,7.80
2019-03-26T09:36:46.781Z,8.20
2019-03-26T09:39:14.566Z,8.40
2019-03-26T09:41:42.663Z,8.10
2019-03-26T09:44:10.412Z,7.90
2019-03-26T09:46:38.199Z,7.70
2019-03-26T09:49:05.956Z,7.80
2019-03-26T09:51:33.709Z,8.40
2019-03-26T09:54:01.468Z,8.80
2019-03-26T09:56:32.069Z,8.90
2019-03-26T09:58:58.846Z,9.10
2019-03-26T10:01:26.588Z,9.40
2019-03-26T10:03:54.472Z,9.10
2019-03-26T10:06:23.587Z,8.80
2019-03-26T10:08:52.985Z,8.60
2019-03-26T10:11:20.936Z,8.80
2019-03-26T10:13:48.693Z,8.50
2019-03-26T10:16:16.425Z,8.20
2019-03-26T10:18:44.206Z,8.30
2019-03-26T10:21:12.068Z,8.30
2019-03-26T10:23:39.825Z,8.40
2019-03-26T10:26:07.557Z,8.40
2019-03-26T10:28:35.294Z,8.70
2019-03-26T10:31:03.056Z,8.60
2019-03-26T10:33:30.834Z,8.40
2019-03-26T10:35:58.612Z,8.50
2019-03-26T10:38:26.368Z,8.70
2019-03-26T10:40:54.127Z,8.50
2019-03-26T10:43:21.885Z,8.70
2019-03-26T10:45:49.628Z,8.80
2019-03-26T10:48:17.416Z,9.00
2019-03-26T10:50:45.298Z,9.00
2019-03-26T10:53:13.060Z,9.00
2019-03-26T10:55:40.892Z,9.10
2019-03-26T10:58:08.651Z,9.50
2019-03-26T11:00:36.384Z,9.50
2019-03-26T11:03:04.245Z,9.60
2019-03-26T11:05:32.074Z,9.30
2019-03-26T11:07:59.856Z,8.80
2019-03-26T11:10:27.585Z,8.30
2019-03-26T11:12:55.351Z,8.10
2019-03-26T11:15:23.199Z,7.90
2019-03-26T11:17:50.973Z,8.50
2019-03-26T11:20:18.828Z,8.70
2019-03-26T11:22:46.618Z,8.60
2019-03-26T11:25:14.763Z,8.70
2019-03-26T11:27:42.524Z,8.80
2019-03-26T11:30:11.433Z,8.90
2019-03-26T11:32:39.198Z,9.20
2019-03-26T11:35:08.068Z,9.80
2019-03-26T11:37:35.835Z,10.60
2019-03-26T11:40:04.168Z,10.90
2019-03-26T11:42:31.917Z,9.90
2019-03-26T11:44:59.660Z,9.30
2019-03-26T11:47:27.531Z,9.40
2019-03-26T11:49:55.297Z,9.70
2019-03-26T11:52:23.121Z,10.10
2019-03-26T11:54:50.977Z,10.10
2019-03-26T11:57:18.841Z,10.30
2019-03-26T11:59:46.597Z,10.00
2019-03-26T12:02:14.469Z,9.90
2019-03-26T12:04:42.375Z,9.60
2019-03-26T12:07:10.122Z,9.30
2019-03-26T12:09:46.215Z,9.30
2019-03-26T12:12:07.544Z,9.10
2019-03-26T12:14:35.409Z,9.10
2019-03-26T12:17:03.160Z,9.20
2019-03-26T12:19:31.056Z,9.20
2019-03-26T12:21:58.881Z,8.80
2019-03-26T12:24:26.771Z,8.60
2019-03-26T12:26:54.545Z,8.40
2019-03-26T12:29:22.296Z,8.10
2019-03-26T12:31:50.061Z,8.30
2019-03-26T12:34:17.817Z,8.50
2019-03-26T12:36:45.601Z,8.40
2019-03-26T12:39:13.496Z,8.70
2019-03-26T12:41:41.513Z,8.70
2019-03-26T12:44:09.303Z,9.10
2019-03-26T12:46:37.137Z,9.30
2019-03-26T12:49:04.891Z,9.20
2019-03-26T12:51:32.670Z,9.20
2019-03-26T12:54:00.408Z,9.60
2019-03-26T12:56:28.224Z,9.60
2019-03-26T12:58:55.976Z,9.40
2019-03-26T13:01:23.721Z,9.80
2019-03-26T13:03:51.565Z,10.10
2019-03-26T13:06:19.486Z,10.90
2019-03-26T13:08:47.321Z,11.00
2019-03-26T13:11:17.083Z,10.20
2019-03-26T13:13:44.758Z,9.70
2019-03-26T13:16:12.650Z,9.30
2019-03-26T13:18:40.397Z,8.80
2019-03-26T13:21:08.145Z,8.50
2019-03-26T13:23:36.092Z,8.40
2019-03-26T13:26:03.844Z,8.30
2019-03-26T13:28:31.608Z,8.40
2019-03-26T13:30:59.557Z,8.70
2019-03-26T13:33:27.361Z,9.00
2019-03-26T13:35:55.228Z,9.10
2019-03-26T13:38:23.002Z,9.40
2019-03-26T13:40:50.765Z,9.80
2019-03-26T13:43:18.529Z,9.70
2019-03-26T13:45:46.253Z,9.30
2019-03-26T13:48:14.072Z,9.20
2019-03-26T13:50:41.813Z,9.20
2019-03-26T13:53:09.689Z,9.10
2019-03-26T13:55:37.660Z,8.70
2019-03-26T13:58:05.545Z,8.80
2019-03-26T14:00:35.153Z,9.00
2019-03-26T14:03:03.216Z,8.90
2019-03-26T14:05:31.053Z,9.10
2019-03-26T14:07:58.844Z,9.30
2019-03-26T14:10:39.846Z,9.30
2019-03-26T14:12:56.631Z,9.20
2019-03-26T14:15:24.357Z,8.80
2019-03-26T14:17:52.108Z,8.70
2019-03-26T14:20:19.971Z,8.80
2019-03-26T14:22:47.860Z,8.90
2019-03-26T14:25:15.620Z,8.70
2019-03-26T14:27:43.369Z,8.90
2019-03-26T14:30:11.838Z,9.10
2019-03-26T14:32:39.617Z,9.30
2019-03-26T14:35:07.774Z,9.70
2019-03-26T14:37:35.635Z,9.60
2019-03-26T14:40:04.034Z,9.70
2019-03-26T14:42:31.898Z,9.50
2019-03-26T14:44:59.633Z,9.10
2019-03-26T14:47:27.753Z,8.50
2019-03-26T14:49:55.505Z,8.00
2019-03-26T14:52:23.273Z,7.70
2019-03-26T14:54:51.209Z,7.70
2019-03-26T14:57:19.000Z,8.00
2019-03-26T14:59:46.765Z,8.00
2019-03-26T15:02:14.558Z,7.90
2019-03-26T15:04:42.327Z,7.80
2019-03-26T15:07:10.101Z,7.80
2019-03-26T15:09:37.865Z,7.80
2019-03-26T15:12:05.718Z,7.70
2019-03-26T15:14:33.500Z,7.90
2019-03-26T15:17:01.241Z,8.20
2019-03-26T15:19:28.989Z,8.20
2019-03-26T15:21:56.720Z,8.10
2019-03-26T15:24:24.574Z,8.00
2019-03-26T15:26:52.413Z,8.10
2019-03-26T15:29:20.201Z,8.20
2019-03-26T15:31:47.949Z,8.00
2019-03-26T15:34:15.713Z,8.10
2019-03-26T15:36:43.445Z,8.10
2019-03-26T15:39:11.189Z,8.20
2019-03-26T15:41:38.937Z,8.20
2019-03-26T15:44:06.677Z,8.20
2019-03-26T15:46:36.447Z,8.30
2019-03-26T15:49:04.181Z,8.30
2019-03-26T15:51:31.976Z,8.20
2019-03-26T15:53:59.865Z,8.20
2019-03-26T15:56:27.617Z,8.10
2019-03-26T15:58:55.352Z,8.10
2019-03-26T16:01:24.467Z,8.30
2019-03-26T16:03:52.759Z,8.40
2019-03-26T16:06:20.628Z,8.50
2019-03-26T16:08:48.353Z,8.40
2019-03-26T16:11:16.217Z,8.30
2019-03-26T16:13:43.956Z,8.10
2019-03-26T16:16:11.693Z,8.10
2019-03-26T16:18:39.456Z,8.00
2019-03-26T16:21:07.188Z,8.00
2019-03-26T16:23:34.941Z,7.90
2019-03-26T16:26:02.684Z,7.90
2019-03-26T16:28:30.533Z,7.80
2019-03-26T16:30:58.486Z,7.70
2019-03-26T16:33:26.412Z,7.50
2019-03-26T16:35:54.152Z,7.50
2019-03-26T16:38:21.904Z,7.40
2019-03-26T16:40:49.749Z,7.40
2019-03-26T16:43:17.444Z,7.60
2019-03-26T16:45:45.292Z,7.40
2019-03-26T16:48:13.070Z,7.60
2019-03-26T16:50:40.800Z,7.70
2019-03-26T16:53:08.554Z,7.80
2019-03-26T16:55:36.497Z,7.90
2019-03-26T16:58:04.255Z,8.00
2019-03-26T17:00:33.158Z,7.90
2019-03-26T17:03:01.218Z,7.80
2019-03-26T17:05:29.378Z,7.70
2019-03-26T17:07:57.199Z,7.70
2019-03-26T17:10:24.944Z,7.80
2019-03-26T17:12:52.740Z,7.70
2019-03-26T17:15:20.691Z,7.60
2019-03-26T17:17:48.448Z,7.60
2019-03-26T17:20:16.189Z,7.60
2019-03-26T17:22:44.273Z,7.70
2019-03-26T17:25:12.138Z,7.80
2019-03-26T17:27:39.889Z,7.70
2019-03-26T17:30:08.245Z,7.80
2019-03-26T17:32:35.988Z,7.70
2019-03-26T17:35:03.829Z,7.50
2019-03-26T17:37:31.612Z,7.20
2019-03-26T17:39:59.371Z,7.00
2019-03-26T17:42:27.299Z,7.20
2019-03-26T17:44:58.258Z,7.10
2019-03-26T17:47:24.757Z,7.10
2019-03-26T17:49:52.507Z,7.10
2019-03-26T17:52:20.248Z,7.20
2019-03-26T17:54:48.159Z,7.30
2019-03-26T17:57:15.912Z,7.30
2019-03-26T17:59:43.685Z,7.50
2019-03-26T18:02:11.557Z,7.20
2019-03-26T18:04:39.299Z,7.20
2019-03-26T18:07:07.265Z,7.20
2019-03-26T18:09:35.038Z,7.20
2019-03-26T18:12:02.988Z,7.20
2019-03-26T18:14:30.758Z,7.10
2019-03-26T18:16:58.525Z,7.10
2019-03-26T18:19:26.341Z,7.10
2019-03-26T18:21:54.091Z,7.10
2019-03-26T18:24:21.863Z,7.20
2019-03-26T18:26:49.601Z,7.30
2019-03-26T18:29:17.397Z,7.40
2019-03-26T18:31:45.150Z,7.30
2019-03-26T18:34:12.889Z,7.30
2019-03-26T18:36:40.638Z,7.10
2019-03-26T18:39:08.449Z,7.10
2019-03-26T18:41:36.284Z,7.00
2019-03-26T18:44:04.028Z,7.20
2019-03-26T18:46:31.789Z,7.00
2019-03-26T18:48:59.536Z,7.10
2019-03-26T18:51:27.276Z,7.20
2019-03-26T18:53:55.153Z,7.20
2019-03-26T18:56:23.096Z,7.00
2019-03-26T18:58:50.849Z,7.10
2019-03-26T19:01:18.624Z,7.10
2019-03-26T19:03:46.393Z,7.20
2019-03-26T19:06:14.174Z,7.20
2019-03-26T19:08:42.048Z,7.20
2019-03-26T19:11:09.785Z,7.40
2019-03-26T19:13:37.568Z,7.40
2019-03-26T19:16:05.312Z,7.20
2019-03-26T19:18:33.113Z,7.30
2019-03-26T19:21:02.414Z,7.40
2019-03-26T19:23:30.792Z,7.50
2019-03-26T19:25:58.533Z,7.50
2019-03-26T19:28:26.276Z,7.30
2019-03-26T19:30:54.037Z,7.20
2019-03-26T19:33:21.796Z,7.30
2019-03-26T19:35:49.560Z,7.40
2019-03-26T19:38:17.313Z,7.50
2019-03-26T19:40:45.041Z,7.60
2019-03-26T19:43:12.789Z,7.60
2019-03-26T19:45:40.545Z,7.60
2019-03-26T19:48:08.318Z,7.60
2019-03-26T19:50:36.168Z,7.60
2019-03-26T19:53:04.034Z,7.50
2019-03-26T19:55:31.772Z,7.60
2019-03-26T19:57:59.542Z,7.50
2019-03-26T20:00:27.286Z,7.40
2019-03-26T20:02:55.085Z,7.60
2019-03-26T20:05:23.036Z,7.30
2019-03-26T20:07:50.888Z,7.20
2019-03-26T20:10:18.827Z,7.10
2019-03-26T20:12:46.685Z,7.10
2019-03-26T20:15:15.227Z,7.00
2019-03-26T20:17:43.120Z,7.10
2019-03-26T20:20:13.393Z,7.10
2019-03-26T20:22:41.136Z,7.10
2019-03-26T20:25:09.280Z,7.30
2019-03-26T20:27:37.029Z,7.40
2019-03-26T20:30:05.874Z,7.40
2019-03-26T20:32:33.613Z,7.50
2019-03-26T20:35:02.724Z,7.50
2019-03-26T20:37:30.553Z,7.40
2019-03-26T20:39:58.310Z,7.50
2019-03-26T20:42:26.172Z,7.50
2019-03-26T20:44:54.021Z,7.50
2019-03-26T20:47:21.762Z,7.50
2019-03-26T20:49:49.496Z,7.60
2019-03-26T20:52:17.335Z,7.50
2019-03-26T20:54:45.192Z,7.60
2019-03-26T20:57:13.141Z,7.50
2019-03-26T20:59:41.214Z,7.50
2019-03-26T21:02:09.074Z,7.60
2019-03-26T21:04:36.830Z,7.50
2019-03-26T21:07:04.671Z,7.50
2019-03-26T21:09:32.421Z,7.40
2019-03-26T21:12:00.505Z,7.60
2019-03-26T21:14:28.364Z,7.50
2019-03-26T21:16:56.204Z,7.50
2019-03-26T21:19:24.048Z,7.50
2019-03-26T21:21:53.111Z,7.40
2019-03-26T21:24:21.124Z,7.20
2019-03-26T21:26:48.913Z,7.20
2019-03-26T21:29:16.682Z,7.30
2019-03-26T21:31:44.416Z,7.20
2019-03-26T21:34:12.176Z,7.20
2019-03-26T21:36:40.121Z,7.40
2019-03-26T21:39:07.979Z,7.30
2019-03-26T21:41:35.739Z,7.30
2019-03-26T21:44:04.766Z,7.20
2019-03-26T21:46:32.889Z,7.10
2019-03-26T21:49:00.732Z,7.20
2019-03-26T21:51:28.488Z,7.10
2019-03-26T21:53:56.238Z,7.00
2019-03-26T21:56:23.992Z,7.10
2019-03-26T21:58:51.757Z,7.00
2019-03-26T22:01:19.488Z,7.00
2019-03-26T22:03:47.233Z,7.10
2019-03-26T22:06:14.985Z,7.10
2019-03-26T22:08:42.735Z,7.20
2019-03-26T22:11:10.480Z,7.10
2019-03-26T22:13:38.354Z,7.20
2019-03-26T22:16:06.096Z,7.20
2019-03-26T22:18:33.874Z,7.30
2019-03-26T22:21:02.121Z,7.20
2019-03-26T22:23:30.002Z,7.30
2019-03-26T22:25:57.789Z,7.20
2019-03-26T22:28:25.554Z,7.00
2019-03-26T22:30:53.298Z,7.10
2019-03-26T22:33:21.030Z,7.10
2019-03-26T22:35:48.829Z,7.00
2019-03-26T22:38:16.557Z,7.00
2019-03-26T22:40:44.520Z,6.80
2019-03-26T22:43:12.271Z,6.90
2019-03-26T22:45:40.037Z,6.90
2019-03-26T22:48:07.772Z,6.90
2019-03-26T22:50:35.516Z,6.60
2019-03-26T22:53:03.269Z,6.50
2019-03-26T22:55:31.017Z,6.60
2019-03-26T22:57:58.766Z,6.40
2019-03-26T23:00:29.004Z,6.40
2019-03-26T23:02:56.848Z,6.40
2019-03-26T23:05:24.587Z,6.50
2019-03-26T23:07:52.349Z,6.60
2019-03-26T23:10:20.209Z,6.80
2019-03-26T23:12:47.979Z,6.90
2019-03-26T23:15:18.948Z,6.80
2019-03-26T23:17:46.804Z,6.80
2019-03-26T23:20:14.640Z,6.70
2019-03-26T23:22:42.409Z,6.80
2019-03-26T23:25:10.208Z,6.70
2019-03-26T23:27:37.956Z,6.70
2019-03-26T23:30:06.068Z,6.80
2019-03-26T23:32:33.813Z,6.80
2019-03-26T23:35:01.684Z,6.80
2019-03-26T23:37:29.440Z,6.70
2019-03-26T23:39:57.211Z,6.70
2019-03-26T23:42:24.974Z,6.70
2019-03-26T23:44:58.307Z,6.70
2019-03-26T23:47:22.448Z,6.70
2019-03-26T23:49:50.188Z,6.60
2019-03-26T23:52:17.953Z,6.70
2019-03-26T23:54:45.715Z,6.50
2019-03-26T23:57:13.447Z,6.40
2019-03-26T23:59:41.189Z,6.30
